sensor_id;sensor_type;location;lat;lon;timestamp;temperature;humidity
19580;DHT22;9936;51.040;13.918;2023-06-10T07:17:38;20.10;99.90
19580;DHT22;9936;51.040;13.918;2023-06-10T07:21:24;20.00;99.90
19580;DHT22;9936;51.040;13.918;2023-06-10T07:25:09;20.10;99.90
19580;DHT22;9936;51.040;13.918;2023-06-10T07:28:55;20.30;99.90
19580;DHT22;9936;51.040;13.918;2023-06-10T07:32:41;20.40;99.90
19580;DHT22;9936;51.040;13.918;2023-06-10T07:36:26;20.50;99.90
19580;DHT22;9936;51.040;13.918;2023-06-10T07:40:13;20.60;99.90
19580;DHT22;9936;51.040;13.918;2023-06-10T07:43:59;20.70;99.90
19580;DHT22;9936;51.040;13.918;2023-06-10T07:47:45;20.90;99.90
19580;DHT22;9936;51.040;13.918;2023-06-10T07:51:30;20.90;99.90
19580;DHT22;9936;51.040;13.918;2023-06-10T07:55:16;21.10;99.90
19580;DHT22;9936;51.040;13.918;2023-06-10T07:59:01;21.10;99.90
19580;DHT22;9936;51.040;13.918;2023-06-10T08:02:47;21.20;99.90
19580;DHT22;9936;51.040;13.918;2023-06-10T08:06:33;21.40;99.90
19580;DHT22;9936;51.040;13.918;2023-06-10T08:10:19;21.80;99.90
19580;DHT22;9936;51.040;13.918;2023-06-10T08:14:04;22.10;99.90
19580;DHT22;9936;51.040;13.918;2023-06-10T08:17:50;22.40;99.90
19580;DHT22;9936;51.040;13.918;2023-06-10T08:21:36;22.40;99.90
19580;DHT22;9936;51.040;13.918;2023-06-10T08:25:24;22.40;99.90
19580;DHT22;9936;51.040;13.918;2023-06-10T08:29:12;22.30;99.90
19580;DHT22;9936;51.040;13.918;2023-06-10T08:32:57;22.30;99.90
19580;DHT22;9936;51.040;13.918;2023-06-10T08:36:43;22.30;99.90
19580;DHT22;9936;51.040;13.918;2023-06-10T08:40:30;22.20;99.90
19580;DHT22;9936;51.040;13.918;2023-06-10T08:44:29;22.30;99.90
19580;DHT22;9936;51.040;13.918;2023-06-10T08:48:17;22.30;99.90
19580;DHT22;9936;51.040;13.918;2023-06-10T08:52:06;22.30;99.90
19580;DHT22;9936;51.040;13.918;2023-06-10T08:55:53;22.40;99.90
19580;DHT22;9936;51.040;13.918;2023-06-10T08:59:41;22.50;99.90
19580;DHT22;9936;51.040;13.918;2023-06-10T09:03:30;22.60;99.90
19580;DHT22;9936;51.040;13.918;2023-06-10T09:07:17;22.70;99.90
19580;DHT22;9936;51.040;13.918;2023-06-10T09:11:02;22.80;99.90
19580;DHT22;9936;51.040;13.918;2023-06-10T09:14:48;22.90;99.90
19580;DHT22;9936;51.040;13.918;2023-06-10T09:18:34;23.10;99.90
19580;DHT22;9936;51.040;13.918;2023-06-10T09:22:21;23.20;99.90
19580;DHT22;9936;51.040;13.918;2023-06-10T09:26:09;23.20;99.90
19580;DHT22;9936;51.040;13.918;2023-06-10T09:29:56;23.20;99.90
19580;DHT22;9936;51.040;13.918;2023-06-10T09:33:43;23.30;99.90
19580;DHT22;9936;51.040;13.918;2023-06-10T09:37:28;23.30;99.90
19580;DHT22;9936;51.040;13.918;2023-06-10T09:41:14;23.30;99.90
19580;DHT22;9936;51.040;13.918;2023-06-10T09:45:01;23.30;99.90
19580;DHT22;9936;51.040;13.918;2023-06-10T09:48:48;23.40;99.90
19580;DHT22;9936;51.040;13.918;2023-06-10T09:52:33;23.50;99.90
19580;DHT22;9936;51.040;13.918;2023-06-10T09:56:19;23.60;99.90
19580;DHT22;9936;51.040;13.918;2023-06-10T10:00:10;23.60;99.90
19580;DHT22;9936;51.040;13.918;2023-06-10T10:03:56;23.70;99.80
19580;DHT22;9936;51.040;13.918;2023-06-10T10:07:43;23.80;99.10
19580;DHT22;9936;51.040;13.918;2023-06-10T10:11:30;23.70;97.60
19580;DHT22;9936;51.040;13.918;2023-06-10T10:15:18;23.80;96.80
19580;DHT22;9936;51.040;13.918;2023-06-10T10:19:30;24.20;95.30
19580;DHT22;9936;51.040;13.918;2023-06-10T10:23:21;24.40;94.40
19580;DHT22;9936;51.040;13.918;2023-06-10T10:27:17;24.50;94.20
19580;DHT22;9936;51.040;13.918;2023-06-10T10:31:08;24.60;94.40
19580;DHT22;9936;51.040;13.918;2023-06-10T10:35:12;24.80;94.30
19580;DHT22;9936;51.040;13.918;2023-06-10T10:39:01;25.00;92.40
19580;DHT22;9936;51.040;13.918;2023-06-10T10:42:49;25.10;92.30
19580;DHT22;9936;51.040;13.918;2023-06-10T10:47:04;25.10;91.20
19580;DHT22;9936;51.040;13.918;2023-06-10T10:50:56;25.20;90.50
19580;DHT22;9936;51.040;13.918;2023-06-10T10:54:46;25.20;90.80
19580;DHT22;9936;51.040;13.918;2023-06-10T10:58:33;25.20;90.00
19580;DHT22;9936;51.040;13.918;2023-06-10T11:06:20;25.10;91.20
19580;DHT22;9936;51.040;13.918;2023-06-10T11:10:10;25.30;90.60
19580;DHT22;9936;51.040;13.918;2023-06-10T11:18:07;25.30;90.90
19580;DHT22;9936;51.040;13.918;2023-06-10T11:22:01;25.30;91.00
19580;DHT22;9936;51.040;13.918;2023-06-10T11:25:47;25.20;91.40
19580;DHT22;9936;51.040;13.918;2023-06-10T11:29:33;24.90;90.90
19580;DHT22;9936;51.040;13.918;2023-06-10T11:33:19;25.10;91.20
19580;DHT22;9936;51.040;13.918;2023-06-10T11:37:05;25.30;92.60
19580;DHT22;9936;51.040;13.918;2023-06-10T11:40:51;25.50;91.30
19580;DHT22;9936;51.040;13.918;2023-06-10T11:44:37;25.70;91.10
19580;DHT22;9936;51.040;13.918;2023-06-10T11:48:23;25.70;90.80
19580;DHT22;9936;51.040;13.918;2023-06-10T11:52:09;25.80;89.50
19580;DHT22;9936;51.040;13.918;2023-06-10T11:55:54;25.90;86.40
19580;DHT22;9936;51.040;13.918;2023-06-10T11:59:40;25.90;86.70
19580;DHT22;9936;51.040;13.918;2023-06-10T12:03:25;26.00;87.00
19580;DHT22;9936;51.040;13.918;2023-06-10T12:07:20;26.00;86.50
19580;DHT22;9936;51.040;13.918;2023-06-10T12:11:08;25.90;83.80
19580;DHT22;9936;51.040;13.918;2023-06-10T12:14:55;25.80;83.90
19580;DHT22;9936;51.040;13.918;2023-06-10T12:18:43;25.70;82.80
19580;DHT22;9936;51.040;13.918;2023-06-10T12:22:41;25.80;80.00
19580;DHT22;9936;51.040;13.918;2023-06-10T12:26:44;25.80;81.90
19580;DHT22;9936;51.040;13.918;2023-06-10T12:30:33;25.90;83.00
19580;DHT22;9936;51.040;13.918;2023-06-10T12:34:19;26.00;85.30
19580;DHT22;9936;51.040;13.918;2023-06-10T12:38:05;26.00;82.30
19580;DHT22;9936;51.040;13.918;2023-06-10T12:41:53;26.10;82.30
19580;DHT22;9936;51.040;13.918;2023-06-10T12:45:40;26.10;81.90
19580;DHT22;9936;51.040;13.918;2023-06-10T12:49:28;26.20;81.30
19580;DHT22;9936;51.040;13.918;2023-06-10T12:53:14;26.20;82.50
19580;DHT22;9936;51.040;13.918;2023-06-10T12:57:00;26.10;81.60
19580;DHT22;9936;51.040;13.918;2023-06-10T13:00:45;26.20;83.00
19580;DHT22;9936;51.040;13.918;2023-06-10T13:04:31;26.20;80.20
19580;DHT22;9936;51.040;13.918;2023-06-10T13:08:17;26.30;80.80
19580;DHT22;9936;51.040;13.918;2023-06-10T13:12:03;26.40;78.70
19580;DHT22;9936;51.040;13.918;2023-06-10T13:15:48;26.40;77.00
19580;DHT22;9936;51.040;13.918;2023-06-10T13:19:35;26.40;78.40
19580;DHT22;9936;51.040;13.918;2023-06-10T13:23:21;26.40;78.60
19580;DHT22;9936;51.040;13.918;2023-06-10T13:27:07;26.50;73.30
19580;DHT22;9936;51.040;13.918;2023-06-10T13:30:52;26.50;72.80
19580;DHT22;9936;51.040;13.918;2023-06-10T13:34:38;26.50;73.80
19580;DHT22;9936;51.040;13.918;2023-06-10T13:38:24;26.50;73.90
19580;DHT22;9936;51.040;13.918;2023-06-10T13:42:10;26.60;74.00
19580;DHT22;9936;51.040;13.918;2023-06-10T13:45:55;26.70;75.40
19580;DHT22;9936;51.040;13.918;2023-06-10T13:49:41;26.70;72.50
19580;DHT22;9936;51.040;13.918;2023-06-10T13:53:27;26.70;69.40
19580;DHT22;9936;51.040;13.918;2023-06-10T13:57:13;26.70;67.60
19580;DHT22;9936;51.040;13.918;2023-06-10T14:00:58;26.70;69.10
19580;DHT22;9936;51.040;13.918;2023-06-10T14:04:44;26.70;68.90
19580;DHT22;9936;51.040;13.918;2023-06-10T14:08:29;26.70;68.50
19580;DHT22;9936;51.040;13.918;2023-06-10T14:12:15;26.70;68.30
19580;DHT22;9936;51.040;13.918;2023-06-10T14:16:01;26.70;67.10
19580;DHT22;9936;51.040;13.918;2023-06-10T14:19:48;26.70;66.50
19580;DHT22;9936;51.040;13.918;2023-06-10T14:23:33;26.70;65.70
19580;DHT22;9936;51.040;13.918;2023-06-10T14:27:19;26.70;66.50
19580;DHT22;9936;51.040;13.918;2023-06-10T14:31:05;26.80;66.80
19580;DHT22;9936;51.040;13.918;2023-06-10T14:34:51;26.80;67.40
19580;DHT22;9936;51.040;13.918;2023-06-10T14:38:36;26.80;66.20
19580;DHT22;9936;51.040;13.918;2023-06-10T14:42:22;26.70;65.20
19580;DHT22;9936;51.040;13.918;2023-06-10T14:46:08;26.80;66.40
19580;DHT22;9936;51.040;13.918;2023-06-10T14:49:53;26.80;67.40
19580;DHT22;9936;51.040;13.918;2023-06-10T14:53:39;26.80;66.70
19580;DHT22;9936;51.040;13.918;2023-06-10T14:57:25;26.80;66.80
19580;DHT22;9936;51.040;13.918;2023-06-10T15:01:10;26.80;67.70
19580;DHT22;9936;51.040;13.918;2023-06-10T15:04:56;26.90;68.40
19580;DHT22;9936;51.040;13.918;2023-06-10T15:08:41;26.90;70.10
19580;DHT22;9936;51.040;13.918;2023-06-10T15:12:27;26.90;69.60
19580;DHT22;9936;51.040;13.918;2023-06-10T15:16:13;26.90;70.50
19580;DHT22;9936;51.040;13.918;2023-06-10T15:20:00;26.90;70.50
19580;DHT22;9936;51.040;13.918;2023-06-10T15:23:46;26.90;70.20
19580;DHT22;9936;51.040;13.918;2023-06-10T15:27:32;26.90;68.80
19580;DHT22;9936;51.040;13.918;2023-06-10T15:31:18;26.90;67.10
19580;DHT22;9936;51.040;13.918;2023-06-10T15:35:04;26.90;66.90
19580;DHT22;9936;51.040;13.918;2023-06-10T15:38:50;26.90;67.00
19580;DHT22;9936;51.040;13.918;2023-06-10T15:42:35;27.00;66.80
19580;DHT22;9936;51.040;13.918;2023-06-10T15:46:21;26.90;67.10
19580;DHT22;9936;51.040;13.918;2023-06-10T15:50:09;26.90;67.60
19580;DHT22;9936;51.040;13.918;2023-06-10T15:53:55;27.00;68.00
19580;DHT22;9936;51.040;13.918;2023-06-10T15:57:41;26.80;66.70
19580;DHT22;9936;51.040;13.918;2023-06-10T16:01:26;26.80;68.20
19580;DHT22;9936;51.040;13.918;2023-06-10T16:05:12;26.70;68.40
19580;DHT22;9936;51.040;13.918;2023-06-10T16:08:57;26.70;68.30
19580;DHT22;9936;51.040;13.918;2023-06-10T16:12:43;26.70;69.50
19580;DHT22;9936;51.040;13.918;2023-06-10T16:16:29;26.80;70.10
19580;DHT22;9936;51.040;13.918;2023-06-10T16:20:14;26.80;70.20
19580;DHT22;9936;51.040;13.918;2023-06-10T16:24:00;26.80;70.40
19580;DHT22;9936;51.040;13.918;2023-06-10T16:27:46;26.90;70.70
19580;DHT22;9936;51.040;13.918;2023-06-10T16:31:31;26.90;67.50
19580;DHT22;9936;51.040;13.918;2023-06-10T16:35:17;26.80;66.90
19580;DHT22;9936;51.040;13.918;2023-06-10T16:39:03;26.90;68.40
19580;DHT22;9936;51.040;13.918;2023-06-10T16:42:49;26.90;67.90
19580;DHT22;9936;51.040;13.918;2023-06-10T16:46:34;27.00;67.90
19580;DHT22;9936;51.040;13.918;2023-06-10T16:50:20;27.00;68.50
19580;DHT22;9936;51.040;13.918;2023-06-10T16:54:06;26.90;68.20
19580;DHT22;9936;51.040;13.918;2023-06-10T16:57:51;27.00;69.30
19580;DHT22;9936;51.040;13.918;2023-06-10T17:01:37;27.00;69.80
19580;DHT22;9936;51.040;13.918;2023-06-10T17:05:23;27.00;68.50
19580;DHT22;9936;51.040;13.918;2023-06-10T17:09:08;27.00;70.50
19580;DHT22;9936;51.040;13.918;2023-06-10T17:12:54;27.00;70.70
19580;DHT22;9936;51.040;13.918;2023-06-10T17:16:39;27.00;70.30
19580;DHT22;9936;51.040;13.918;2023-06-10T17:20:25;26.90;70.70
19580;DHT22;9936;51.040;13.918;2023-06-10T17:24:12;27.00;72.60
19580;DHT22;9936;51.040;13.918;2023-06-10T17:27:57;27.10;73.00
19580;DHT22;9936;51.040;13.918;2023-06-10T17:31:43;27.10;73.30
19580;DHT22;9936;51.040;13.918;2023-06-10T17:35:29;27.20;73.50
19580;DHT22;9936;51.040;13.918;2023-06-10T17:39:14;27.20;72.90
19580;DHT22;9936;51.040;13.918;2023-06-10T17:43:00;27.20;71.20
19580;DHT22;9936;51.040;13.918;2023-06-10T17:46:46;27.10;72.40
19580;DHT22;9936;51.040;13.918;2023-06-10T17:50:31;27.10;73.10
19580;DHT22;9936;51.040;13.918;2023-06-10T17:54:18;27.10;73.10
19580;DHT22;9936;51.040;13.918;2023-06-10T17:58:03;27.10;74.60
19580;DHT22;9936;51.040;13.918;2023-06-10T18:01:49;27.10;75.30
19580;DHT22;9936;51.040;13.918;2023-06-10T18:05:35;27.10;76.00
19580;DHT22;9936;51.040;13.918;2023-06-10T18:09:21;27.00;76.50
19580;DHT22;9936;51.040;13.918;2023-06-10T18:13:07;27.10;77.30
19580;DHT22;9936;51.040;13.918;2023-06-10T18:16:53;27.00;78.30
19580;DHT22;9936;51.040;13.918;2023-06-10T18:20:38;27.00;79.00
19580;DHT22;9936;51.040;13.918;2023-06-10T18:24:24;27.00;79.70
19580;DHT22;9936;51.040;13.918;2023-06-10T18:28:10;26.90;80.20
19580;DHT22;9936;51.040;13.918;2023-06-10T18:31:55;26.90;80.60
19580;DHT22;9936;51.040;13.918;2023-06-10T18:35:41;26.80;81.00
19580;DHT22;9936;51.040;13.918;2023-06-10T18:39:28;26.80;81.50
19580;DHT22;9936;51.040;13.918;2023-06-10T18:43:13;26.80;81.90
19580;DHT22;9936;51.040;13.918;2023-06-10T18:46:59;26.70;82.20
19580;DHT22;9936;51.040;13.918;2023-06-10T18:50:45;26.60;82.40
19580;DHT22;9936;51.040;13.918;2023-06-10T18:54:31;26.60;82.60
19580;DHT22;9936;51.040;13.918;2023-06-10T18:58:17;26.50;83.00
19580;DHT22;9936;51.040;13.918;2023-06-10T19:02:03;26.50;83.30
19580;DHT22;9936;51.040;13.918;2023-06-10T19:05:49;26.40;83.40
19580;DHT22;9936;51.040;13.918;2023-06-10T19:09:34;26.30;83.50
19580;DHT22;9936;51.040;13.918;2023-06-10T19:13:20;26.20;83.50
19580;DHT22;9936;51.040;13.918;2023-06-10T19:17:06;26.20;83.50
19580;DHT22;9936;51.040;13.918;2023-06-10T19:20:52;26.00;80.20
19580;DHT22;9936;51.040;13.918;2023-06-10T19:24:38;25.80;79.60
19580;DHT22;9936;51.040;13.918;2023-06-10T19:28:25;25.60;80.00
19580;DHT22;9936;51.040;13.918;2023-06-10T19:32:10;25.50;80.20
19580;DHT22;9936;51.040;13.918;2023-06-10T19:35:56;25.40;80.00
19580;DHT22;9936;51.040;13.918;2023-06-10T19:39:42;25.40;80.00
19580;DHT22;9936;51.040;13.918;2023-06-10T19:43:27;25.30;80.20
19580;DHT22;9936;51.040;13.918;2023-06-10T19:47:13;25.20;80.50
19580;DHT22;9936;51.040;13.918;2023-06-10T19:50:59;25.10;80.80
19580;DHT22;9936;51.040;13.918;2023-06-10T19:54:44;25.10;80.60
19580;DHT22;9936;51.040;13.918;2023-06-10T19:58:30;25.00;80.50
19580;DHT22;9936;51.040;13.918;2023-06-10T20:02:16;24.90;80.70
19580;DHT22;9936;51.040;13.918;2023-06-10T20:06:02;24.90;80.70
19580;DHT22;9936;51.040;13.918;2023-06-10T20:09:48;24.80;80.40
19580;DHT22;9936;51.040;13.918;2023-06-10T20:13:33;24.80;80.60
19580;DHT22;9936;51.040;13.918;2023-06-10T20:17:19;24.70;80.90
19580;DHT22;9936;51.040;13.918;2023-06-10T20:21:05;24.70;80.60
19580;DHT22;9936;51.040;13.918;2023-06-10T20:24:51;24.60;80.60
19580;DHT22;9936;51.040;13.918;2023-06-10T20:28:40;24.50;80.00
19580;DHT22;9936;51.040;13.918;2023-06-10T20:32:25;24.40;80.40
19580;DHT22;9936;51.040;13.918;2023-06-10T20:36:11;24.30;80.70
19580;DHT22;9936;51.040;13.918;2023-06-10T20:39:56;24.20;80.40
19580;DHT22;9936;51.040;13.918;2023-06-10T20:43:42;24.20;80.70
19580;DHT22;9936;51.040;13.918;2023-06-10T20:47:28;24.20;80.40
19580;DHT22;9936;51.040;13.918;2023-06-10T20:51:14;24.10;80.60
19580;DHT22;9936;51.040;13.918;2023-06-10T20:54:59;24.10;80.80
19580;DHT22;9936;51.040;13.918;2023-06-10T20:58:45;24.00;80.70
19580;DHT22;9936;51.040;13.918;2023-06-10T21:02:31;24.00;81.70
19580;DHT22;9936;51.040;13.918;2023-06-10T21:06:21;24.00;82.20
19580;DHT22;9936;51.040;13.918;2023-06-10T21:10:08;24.00;81.40
19580;DHT22;9936;51.040;13.918;2023-06-10T21:13:53;23.90;80.60
19580;DHT22;9936;51.040;13.918;2023-06-10T21:17:40;23.90;81.70
19580;DHT22;9936;51.040;13.918;2023-06-10T21:21:26;23.80;80.80
19580;DHT22;9936;51.040;13.918;2023-06-10T21:25:11;23.70;80.40
19580;DHT22;9936;51.040;13.918;2023-06-10T21:28:57;23.70;82.10
19580;DHT22;9936;51.040;13.918;2023-06-10T21:32:52;23.60;82.20
19580;DHT22;9936;51.040;13.918;2023-06-10T21:36:38;23.60;82.40
19580;DHT22;9936;51.040;13.918;2023-06-10T21:40:24;23.50;82.80
19580;DHT22;9936;51.040;13.918;2023-06-10T21:44:10;23.50;82.10
19580;DHT22;9936;51.040;13.918;2023-06-10T21:47:55;23.40;82.50
19580;DHT22;9936;51.040;13.918;2023-06-10T21:51:41;23.40;82.90
19580;DHT22;9936;51.040;13.918;2023-06-10T21:55:28;23.40;82.30
19580;DHT22;9936;51.040;13.918;2023-06-10T21:59:14;23.30;82.30
19580;DHT22;9936;51.040;13.918;2023-06-10T22:03:00;23.30;83.00
19580;DHT22;9936;51.040;13.918;2023-06-10T22:06:46;23.20;82.90
19580;DHT22;9936;51.040;13.918;2023-06-10T22:10:31;23.20;82.40
19580;DHT22;9936;51.040;13.918;2023-06-10T22:14:17;23.10;83.00
19580;DHT22;9936;51.040;13.918;2023-06-10T22:18:06;23.00;83.00
19580;DHT22;9936;51.040;13.918;2023-06-10T22:21:52;23.00;83.00
19580;DHT22;9936;51.040;13.918;2023-06-10T22:25:37;22.90;82.80
19580;DHT22;9936;51.040;13.918;2023-06-10T22:29:23;22.80;83.30
19580;DHT22;9936;51.040;13.918;2023-06-10T22:33:08;22.80;82.50
19580;DHT22;9936;51.040;13.918;2023-06-10T22:36:54;22.70;83.40
19580;DHT22;9936;51.040;13.918;2023-06-10T22:40:40;22.70;83.50
19580;DHT22;9936;51.040;13.918;2023-06-10T22:44:25;22.60;83.40
19580;DHT22;9936;51.040;13.918;2023-06-10T22:48:11;22.60;83.30
19580;DHT22;9936;51.040;13.918;2023-06-10T22:51:57;22.50;83.20
19580;DHT22;9936;51.040;13.918;2023-06-10T22:55:42;22.40;83.30
19580;DHT22;9936;51.040;13.918;2023-06-10T22:59:28;22.40;83.40
19580;DHT22;9936;51.040;13.918;2023-06-10T23:03:14;22.30;83.40
19580;DHT22;9936;51.040;13.918;2023-06-10T23:06:59;22.30;83.60
19580;DHT22;9936;51.040;13.918;2023-06-10T23:10:45;22.20;83.30
19580;DHT22;9936;51.040;13.918;2023-06-10T23:14:31;22.20;83.60
19580;DHT22;9936;51.040;13.918;2023-06-10T23:18:16;22.10;83.30
19580;DHT22;9936;51.040;13.918;2023-06-10T23:22:02;22.00;83.50
19580;DHT22;9936;51.040;13.918;2023-06-10T23:25:49;21.90;82.70
19580;DHT22;9936;51.040;13.918;2023-06-10T23:29:34;21.90;83.30
19580;DHT22;9936;51.040;13.918;2023-06-10T23:33:20;21.80;83.30
19580;DHT22;9936;51.040;13.918;2023-06-10T23:37:06;21.70;82.70
19580;DHT22;9936;51.040;13.918;2023-06-10T23:40:56;21.70;82.80
19580;DHT22;9936;51.040;13.918;2023-06-10T23:44:41;21.60;82.80
19580;DHT22;9936;51.040;13.918;2023-06-10T23:48:27;21.50;83.40
19580;DHT22;9936;51.040;13.918;2023-06-10T23:52:13;21.50;83.60
19580;DHT22;9936;51.040;13.918;2023-06-10T23:56:00;21.40;83.30
19580;DHT22;9936;51.040;13.918;2023-06-10T23:59:47;21.30;83.50
